createdAt,value
2022-11-07T00:00:21.304Z,93.00
2022-11-07T00:02:26.200Z,92.41
2022-11-07T00:04:29.600Z,92.16
2022-11-07T00:06:33.338Z,93.48
2022-11-07T00:08:36.477Z,93.21
2022-11-07T00:10:39.521Z,93.84
2022-11-07T00:12:43.032Z,93.44
2022-11-07T00:14:46.100Z,93.53
2022-11-07T00:16:50.969Z,93.89
2022-11-07T00:18:55.481Z,94.21
2022-11-07T00:21:02.306Z,95.01
2022-11-07T00:23:05.379Z,94.05
2022-11-07T00:25:09.534Z,94.35
2022-11-07T00:27:12.841Z,93.51
2022-11-07T00:29:17.240Z,93.43
2022-11-07T00:31:20.580Z,92.13
2022-11-07T00:33:23.910Z,93.15
2022-11-07T00:35:28.548Z,92.99
2022-11-07T00:37:31.718Z,92.19
2022-11-07T00:39:34.942Z,93.11
2022-11-07T00:41:38.383Z,93.04
2022-11-07T00:43:41.707Z,91.31
2022-11-07T00:45:44.804Z,92.66
2022-11-07T00:47:47.930Z,91.04
2022-11-07T00:49:51.015Z,92.09
2022-11-07T00:51:55.364Z,93.56
2022-11-07T00:53:58.672Z,93.16
2022-11-07T00:56:05.944Z,92.84
2022-11-07T00:58:13.870Z,92.55
2022-11-07T01:00:17.733Z,93.14
2022-11-07T01:02:20.864Z,93.70
2022-11-07T01:04:41.227Z,95.19
2022-11-07T01:06:45.417Z,95.36
2022-11-07T01:08:49.838Z,95.31
2022-11-07T01:10:52.977Z,95.68
2022-11-07T01:12:56.030Z,94.81
2022-11-07T01:14:59.057Z,95.22
2022-11-07T01:17:02.087Z,93.36
2022-11-07T01:19:05.651Z,93.95
2022-11-07T01:21:15.131Z,92.88
2022-11-07T01:23:20.348Z,93.78
2022-11-07T01:25:24.930Z,93.60
2022-11-07T01:27:28.073Z,94.21
2022-11-07T01:29:31.391Z,93.93
2022-11-07T01:31:34.426Z,94.56
2022-11-07T01:33:38.508Z,93.75
2022-11-07T01:35:42.134Z,93.35
2022-11-07T01:37:45.111Z,94.04
2022-11-07T01:39:48.102Z,94.40
2022-11-07T01:41:52.701Z,93.47
2022-11-07T01:43:58.790Z,93.93
2022-11-07T01:46:01.804Z,93.29
2022-11-07T01:48:04.921Z,93.67
2022-11-07T01:50:08.916Z,93.84
2022-11-07T01:52:15.706Z,93.27
2022-11-07T01:54:21.484Z,94.65
2022-11-07T01:56:27.785Z,93.44
2022-11-07T01:58:32.202Z,93.63
2022-11-07T02:00:35.891Z,94.01
2022-11-07T02:02:39.584Z,94.76
2022-11-07T02:04:42.678Z,94.46
2022-11-07T02:06:48.195Z,94.30
2022-11-07T02:08:51.877Z,94.82
2022-11-07T02:10:55.169Z,95.42
2022-11-07T02:12:59.371Z,95.35
2022-11-07T02:15:03.841Z,94.91
2022-11-07T02:17:06.822Z,95.28
2022-11-07T02:19:21.453Z,96.42
2022-11-07T02:21:31.366Z,95.45
2022-11-07T02:23:37.713Z,96.52
2022-11-07T02:25:42.233Z,96.79
2022-11-07T02:27:47.695Z,97.18
2022-11-07T02:29:53.261Z,95.86
2022-11-07T02:32:06.621Z,96.47
2022-11-07T02:34:09.715Z,94.97
2022-11-07T02:36:16.886Z,96.23
2022-11-07T02:38:21.956Z,95.68
2022-11-07T02:40:25.035Z,96.78
2022-11-07T02:42:43.574Z,95.33
2022-11-07T02:44:46.751Z,95.71
2022-11-07T02:46:49.842Z,95.81
2022-11-07T02:48:55.598Z,97.22
2022-11-07T02:50:58.835Z,96.62
2022-11-07T02:53:04.721Z,96.84
2022-11-07T02:55:09.239Z,95.86
2022-11-07T02:57:12.790Z,96.36
2022-11-07T02:59:17.137Z,97.21
2022-11-07T03:01:20.691Z,97.33
2022-11-07T03:03:23.839Z,97.81
2022-11-07T03:05:26.803Z,97.92
2022-11-07T03:07:29.749Z,97.42
2022-11-07T03:09:32.708Z,97.36
2022-11-07T03:11:35.672Z,97.82
2022-11-07T03:13:38.812Z,97.47
2022-11-07T03:15:43.156Z,97.80
2022-11-07T03:17:46.126Z,97.43
2022-11-07T03:19:49.216Z,97.10
2022-11-07T03:21:52.583Z,98.07
2022-11-07T03:23:55.508Z,97.99
2022-11-07T03:25:58.468Z,99.10
2022-11-07T03:28:01.450Z,98.07
2022-11-07T03:30:05.097Z,98.22
2022-11-07T03:32:09.459Z,98.68
2022-11-07T03:34:12.612Z,98.08
2022-11-07T03:36:15.630Z,98.63
2022-11-07T03:38:18.579Z,99.28
2022-11-07T03:40:21.504Z,99.68
2022-11-07T03:42:24.826Z,99.46
2022-11-07T03:44:27.736Z,100.00
2022-11-07T03:46:31.041Z,98.69
2022-11-07T03:48:35.449Z,99.02
2022-11-07T03:50:38.694Z,99.51
2022-11-07T03:52:41.810Z,98.67
2022-11-07T03:54:44.802Z,99.74
2022-11-07T03:56:47.774Z,99.86
2022-11-07T03:58:51.034Z,98.80
2022-11-07T04:00:54.171Z,99.76
2022-11-07T04:02:57.231Z,100.00
2022-11-07T04:05:01.695Z,99.90
2022-11-07T04:07:04.742Z,99.28
2022-11-07T04:09:07.850Z,99.58
2022-11-07T04:11:31.664Z,99.78
2022-11-07T04:13:52.556Z,99.24
2022-11-07T04:16:17.426Z,98.98
2022-11-07T04:18:21.021Z,99.71
2022-11-07T04:20:25.322Z,98.50
2022-11-07T04:22:28.390Z,99.85
2022-11-07T04:24:31.481Z,100.00
2022-11-07T04:26:52.249Z,99.71
2022-11-07T04:28:55.208Z,99.42
2022-11-07T04:30:58.260Z,100.00
2022-11-07T04:33:02.626Z,99.18
2022-11-07T04:35:06.365Z,98.80
2022-11-07T04:37:10.670Z,99.42
2022-11-07T04:39:13.743Z,99.89
2022-11-07T04:41:20.877Z,99.38
2022-11-07T04:43:24.421Z,99.79
2022-11-07T04:45:27.333Z,99.52
2022-11-07T04:47:30.436Z,100.00
2022-11-07T04:49:33.412Z,100.00
2022-11-07T04:51:42.917Z,100.00
2022-11-07T04:53:47.407Z,100.00
2022-11-07T04:55:50.416Z,100.00
2022-11-07T04:57:54.137Z,100.00
2022-11-07T04:59:57.164Z,100.00
2022-11-07T05:02:01.840Z,100.00
2022-11-07T05:04:05.231Z,100.00
2022-11-07T05:06:08.326Z,100.00
2022-11-07T05:08:11.670Z,100.00
2022-11-07T05:10:20.038Z,100.00
2022-11-07T05:12:23.059Z,100.00
2022-11-07T05:14:26.076Z,100.00
2022-11-07T05:16:30.308Z,100.00
2022-11-07T05:18:33.364Z,99.93
2022-11-07T05:20:38.420Z,100.00
2022-11-07T05:22:59.520Z,100.00
2022-11-07T05:25:02.498Z,100.00
2022-11-07T05:27:08.431Z,100.00
2022-11-07T05:29:11.994Z,100.00
2022-11-07T05:31:16.455Z,100.00
2022-11-07T05:33:20.263Z,100.00
2022-11-07T05:35:23.322Z,100.00
2022-11-07T05:37:26.379Z,100.00
2022-11-07T05:39:29.633Z,100.00
2022-11-07T05:41:32.627Z,100.00
2022-11-07T05:43:38.099Z,100.00
2022-11-07T05:45:41.361Z,100.00
2022-11-07T05:47:44.441Z,100.00
2022-11-07T05:49:47.637Z,100.00
2022-11-07T05:51:50.725Z,99.88
2022-11-07T05:53:54.107Z,100.00
2022-11-07T05:55:57.293Z,100.00
2022-11-07T05:58:05.865Z,99.77
2022-11-07T06:00:13.215Z,100.00
2022-11-07T06:02:16.380Z,99.11
2022-11-07T06:04:19.491Z,99.60
2022-11-07T06:06:22.681Z,100.00
2022-11-07T06:08:25.972Z,100.00
2022-11-07T06:10:29.055Z,99.91
2022-11-07T06:12:32.090Z,100.00
2022-11-07T06:14:35.025Z,100.00
2022-11-07T06:16:39.530Z,99.50
2022-11-07T06:18:42.538Z,100.00
2022-11-07T06:20:45.734Z,99.34
2022-11-07T06:22:49.028Z,100.00
2022-11-07T06:24:52.086Z,100.00
2022-11-07T06:26:55.129Z,98.94
2022-11-07T06:28:58.101Z,99.42
2022-11-07T06:31:01.390Z,100.00
2022-11-07T06:33:07.448Z,100.00
2022-11-07T06:35:10.812Z,100.00
2022-11-07T06:37:14.138Z,100.00
2022-11-07T06:39:17.691Z,100.00
2022-11-07T06:41:20.833Z,100.00
2022-11-07T06:43:24.105Z,100.00
2022-11-07T06:45:27.091Z,100.00
2022-11-07T06:47:30.077Z,100.00
2022-11-07T06:49:34.613Z,100.00
2022-11-07T06:51:37.704Z,100.00
2022-11-07T06:53:41.137Z,100.00
2022-11-07T06:55:44.190Z,100.00
2022-11-07T06:57:47.217Z,100.00
2022-11-07T06:59:51.853Z,100.00
2022-11-07T07:01:55.323Z,99.13
2022-11-07T07:04:00.134Z,100.00
2022-11-07T07:06:06.132Z,100.00
2022-11-07T07:08:10.686Z,98.53
2022-11-07T07:10:14.917Z,98.49
2022-11-07T07:12:17.929Z,99.70
2022-11-07T07:14:20.892Z,99.00
2022-11-07T07:16:23.871Z,98.51
2022-11-07T07:18:27.757Z,99.26
2022-11-07T07:20:31.208Z,98.52
2022-11-07T07:22:35.752Z,98.37
2022-11-07T07:24:38.778Z,98.20
2022-11-07T07:26:41.756Z,98.32
2022-11-07T07:28:45.368Z,98.60
2022-11-07T07:30:51.848Z,98.69
2022-11-07T07:32:55.323Z,99.72
2022-11-07T07:34:58.412Z,99.29
2022-11-07T07:37:01.528Z,98.33
2022-11-07T07:39:06.325Z,97.52
2022-11-07T07:41:09.642Z,98.50
2022-11-07T07:43:12.798Z,97.43
2022-11-07T07:45:16.673Z,96.46
2022-11-07T07:47:19.722Z,96.91
2022-11-07T07:49:22.660Z,96.88
2022-11-07T07:51:25.693Z,96.58
2022-11-07T07:53:28.709Z,96.91
2022-11-07T07:55:33.154Z,96.61
2022-11-07T07:57:40.109Z,96.51
2022-11-07T07:59:43.025Z,96.84
2022-11-07T08:01:48.774Z,96.23
2022-11-07T08:04:02.745Z,96.47
2022-11-07T08:06:06.784Z,96.34
2022-11-07T08:08:10.025Z,96.82
2022-11-07T08:10:39.664Z,96.85
2022-11-07T08:12:37.474Z,96.30
2022-11-07T08:14:40.472Z,95.86
2022-11-07T08:16:43.540Z,95.86
2022-11-07T08:18:46.536Z,95.79
2022-11-07T08:20:50.975Z,96.04
2022-11-07T08:23:01.369Z,93.85
2022-11-07T08:25:05.047Z,93.94
2022-11-07T08:27:08.590Z,93.94
2022-11-07T08:29:13.086Z,93.21
2022-11-07T08:31:16.503Z,93.59
2022-11-07T08:33:19.945Z,92.72
2022-11-07T08:35:23.053Z,92.32
2022-11-07T08:37:26.318Z,92.97
2022-11-07T08:39:29.469Z,91.75
2022-11-07T08:41:32.599Z,91.89
2022-11-07T08:43:36.248Z,91.20
2022-11-07T08:45:42.525Z,90.36
2022-11-07T08:47:45.996Z,90.95
2022-11-07T08:49:49.022Z,91.10
2022-11-07T08:51:52.245Z,91.00
2022-11-07T08:53:55.407Z,90.09
2022-11-07T08:56:02.692Z,90.24
2022-11-07T08:58:07.226Z,90.40
2022-11-07T09:00:16.862Z,90.03
2022-11-07T09:04:45.013Z,90.21
2022-11-07T09:06:48.161Z,89.75
2022-11-07T09:08:51.618Z,88.93
2022-11-07T09:10:54.841Z,89.57
2022-11-07T09:12:58.013Z,88.59
2022-11-07T09:15:01.068Z,89.81
2022-11-07T09:17:04.166Z,89.34
2022-11-07T09:19:08.701Z,88.78
2022-11-07T09:21:12.100Z,89.79
2022-11-07T09:23:15.445Z,88.02
2022-11-07T09:25:19.292Z,88.50
2022-11-07T09:27:22.292Z,88.54
2022-11-07T09:29:25.332Z,88.59
2022-11-07T09:31:28.375Z,89.48
2022-11-07T09:33:31.858Z,88.36
2022-11-07T09:35:36.314Z,88.14
2022-11-07T09:37:39.834Z,87.48
2022-11-07T09:39:42.810Z,88.19
2022-11-07T09:41:52.979Z,87.71
2022-11-07T09:44:07.454Z,87.63
2022-11-07T09:46:23.161Z,87.17
2022-11-07T09:48:27.466Z,87.48
2022-11-07T09:50:33.055Z,86.67
2022-11-07T09:52:41.981Z,86.31
2022-11-07T09:54:47.202Z,87.51
2022-11-07T09:56:50.396Z,86.33
2022-11-07T09:58:54.691Z,88.39
2022-11-07T10:01:00.921Z,86.89
2022-11-07T10:03:04.270Z,86.14
2022-11-07T10:05:10.842Z,86.63
2022-11-07T10:07:23.943Z,85.87
2022-11-07T10:09:36.071Z,86.75
2022-11-07T10:11:42.405Z,84.02
2022-11-07T10:13:53.896Z,84.36
2022-11-07T10:16:05.365Z,84.03
2022-11-07T10:18:16.771Z,84.74
2022-11-07T10:20:30.838Z,84.74
2022-11-07T10:22:44.199Z,84.53
2022-11-07T10:24:59.869Z,83.24
2022-11-07T10:27:03.292Z,84.49
2022-11-07T10:29:13.541Z,83.43
2022-11-07T10:31:16.677Z,83.89
2022-11-07T10:33:33.660Z,83.71
2022-11-07T10:35:39.818Z,82.54
2022-11-07T10:37:42.917Z,82.46
2022-11-07T10:39:46.074Z,82.75
2022-11-07T10:41:57.109Z,83.52
2022-11-07T10:44:01.901Z,81.64
2022-11-07T10:46:13.073Z,81.59
2022-11-07T10:48:16.477Z,83.27
2022-11-07T10:50:22.309Z,82.01
2022-11-07T10:52:25.874Z,82.16
2022-11-07T10:54:30.143Z,82.57
2022-11-07T10:56:45.054Z,82.06
2022-11-07T10:58:49.633Z,82.06
2022-11-07T11:01:02.291Z,83.55
2022-11-07T11:03:16.418Z,82.70
2022-11-07T11:05:25.875Z,82.23
2022-11-07T11:07:35.991Z,82.79
2022-11-07T11:09:39.253Z,80.90
2022-11-07T11:11:44.161Z,82.69
2022-11-07T11:13:47.362Z,82.31
2022-11-07T11:15:52.014Z,82.52
2022-11-07T11:18:00.631Z,82.52
2022-11-07T11:20:03.914Z,81.89
2022-11-07T11:22:13.225Z,82.90
2022-11-07T11:24:24.135Z,81.77
2022-11-07T11:26:31.145Z,81.80
2022-11-07T11:28:37.048Z,81.19
2022-11-07T11:30:41.023Z,80.56
2022-11-07T11:32:51.507Z,80.13
2022-11-07T11:35:03.817Z,80.45
2022-11-07T11:37:10.040Z,78.66
2022-11-07T11:39:26.578Z,81.80
2022-11-07T11:41:34.119Z,80.46
2022-11-07T11:43:43.026Z,80.20
2022-11-07T11:45:53.983Z,82.13
2022-11-07T11:48:01.478Z,82.79
2022-11-07T11:50:06.799Z,80.40
2022-11-07T11:52:15.516Z,80.25
2022-11-07T11:54:18.626Z,80.91
2022-11-07T11:56:40.008Z,82.63
2022-11-07T11:58:45.908Z,83.61
2022-11-07T12:00:54.021Z,83.09
2022-11-07T12:03:13.384Z,81.12
2022-11-07T12:05:56.669Z,82.64
2022-11-07T12:08:13.032Z,81.75
2022-11-07T12:10:20.743Z,83.00
2022-11-07T12:12:29.938Z,83.42
2022-11-07T12:15:03.655Z,83.78
2022-11-07T12:17:10.856Z,83.76
2022-11-07T12:19:21.367Z,84.32
2022-11-07T12:21:32.673Z,82.63
2022-11-07T12:23:53.860Z,83.97
2022-11-07T12:26:04.314Z,83.27
2022-11-07T12:28:19.583Z,84.18
2022-11-07T12:30:24.874Z,84.21
2022-11-07T12:32:34.030Z,82.50
2022-11-07T12:34:51.461Z,83.40
2022-11-07T12:37:06.994Z,82.58
2022-11-07T12:39:33.193Z,83.61
2022-11-07T12:41:41.175Z,84.09
2022-11-07T12:43:53.504Z,84.42
2022-11-07T12:45:59.376Z,84.17
2022-11-07T12:48:15.296Z,82.85
2022-11-07T12:50:26.571Z,85.88
2022-11-07T12:52:39.396Z,84.65
2022-11-07T12:54:48.121Z,83.61
2022-11-07T12:56:52.137Z,82.60
2022-11-07T12:58:55.578Z,83.53
2022-11-07T13:00:59.286Z,82.52
2022-11-07T13:03:19.965Z,83.55
2022-11-07T13:05:37.618Z,82.82
2022-11-07T13:07:43.466Z,82.67
2022-11-07T13:09:51.839Z,83.95
2022-11-07T13:12:00.548Z,84.40
2022-11-07T13:14:25.106Z,82.52
2022-11-07T13:16:29.866Z,85.08
2022-11-07T13:18:32.923Z,85.06
2022-11-07T13:20:37.276Z,81.52
2022-11-07T13:22:41.310Z,83.63
2022-11-07T13:24:52.915Z,82.74
2022-11-07T13:26:56.101Z,83.18
2022-11-07T13:29:00.231Z,83.01
2022-11-07T13:31:07.627Z,82.92
2022-11-07T13:33:26.326Z,80.91
2022-11-07T13:35:31.170Z,82.33
2022-11-07T13:37:38.369Z,81.27
2022-11-07T13:39:41.695Z,80.19
2022-11-07T13:41:47.055Z,81.10
2022-11-07T13:43:55.528Z,81.65
2022-11-07T13:46:00.353Z,80.58
2022-11-07T13:48:06.754Z,78.89
2022-11-07T13:50:18.181Z,80.10
2022-11-07T13:52:24.446Z,80.22
2022-11-07T13:54:32.421Z,80.46
2022-11-07T13:56:41.361Z,79.77
2022-11-07T13:58:44.778Z,80.04
2022-11-07T14:00:48.025Z,81.17
2022-11-07T14:02:53.725Z,79.14
2022-11-07T14:05:17.845Z,80.29
2022-11-07T14:07:26.138Z,80.50
2022-11-07T14:09:32.783Z,81.14
2022-11-07T14:11:36.303Z,80.85
2022-11-07T14:13:41.662Z,81.54
2022-11-07T14:15:46.875Z,81.85
2022-11-07T14:17:50.041Z,83.09
2022-11-07T14:19:55.031Z,82.65
2022-11-07T14:21:58.106Z,82.07
2022-11-07T14:24:01.453Z,80.37
2022-11-07T14:26:18.573Z,81.30
2022-11-07T14:28:21.649Z,81.24
2022-11-07T14:30:25.601Z,82.61
2022-11-07T14:32:32.001Z,83.19
2022-11-07T14:34:36.744Z,81.74
2022-11-07T14:36:47.973Z,83.33
2022-11-07T14:38:52.591Z,80.52
2022-11-07T14:40:57.234Z,82.39
2022-11-07T14:43:01.732Z,80.82
2022-11-07T14:45:06.468Z,81.54
2022-11-07T14:47:15.470Z,80.93
2022-11-07T14:49:24.604Z,80.82
2022-11-07T14:51:29.127Z,79.71
2022-11-07T14:53:34.223Z,79.73
2022-11-07T14:55:38.873Z,80.29
2022-11-07T14:57:42.022Z,80.53
2022-11-07T14:59:46.587Z,79.63
2022-11-07T15:01:54.765Z,81.44
2022-11-07T15:04:00.309Z,80.54
2022-11-07T15:06:03.919Z,80.45
2022-11-07T15:08:07.292Z,80.73
2022-11-07T15:10:20.581Z,79.58
2022-11-07T15:12:28.686Z,80.92
2022-11-07T15:14:33.520Z,80.25
2022-11-07T15:16:48.062Z,80.91
2022-11-07T15:18:58.738Z,80.83
2022-11-07T15:21:03.051Z,81.34
2022-11-07T15:23:08.007Z,80.67
2022-11-07T15:25:25.656Z,81.46
2022-11-07T15:27:36.033Z,81.95
2022-11-07T15:29:39.069Z,82.63
2022-11-07T15:31:49.368Z,81.72
2022-11-07T15:33:52.989Z,83.14
2022-11-07T15:35:57.375Z,81.99
2022-11-07T15:38:02.590Z,81.62
2022-11-07T15:40:14.573Z,82.63
2022-11-07T15:42:17.675Z,81.80
2022-11-07T15:44:20.689Z,81.44
2022-11-07T15:46:26.332Z,80.80
2022-11-07T15:48:38.251Z,82.30
2022-11-07T15:50:43.403Z,80.76
2022-11-07T15:52:47.068Z,81.92
2022-11-07T15:54:50.272Z,82.31
2022-11-07T15:56:58.337Z,82.66
2022-11-07T15:59:02.017Z,83.23
2022-11-07T16:01:05.566Z,81.60
2022-11-07T16:03:13.894Z,81.70
2022-11-07T16:05:18.768Z,83.22
2022-11-07T16:07:22.321Z,83.88
2022-11-07T16:09:27.153Z,83.87
2022-11-07T16:11:30.200Z,83.69
2022-11-07T16:13:33.530Z,83.52
2022-11-07T16:15:36.682Z,83.39
2022-11-07T16:17:40.035Z,83.71
2022-11-07T16:19:43.292Z,82.22
2022-11-07T16:21:48.464Z,84.10
2022-11-07T16:23:52.585Z,83.92
2022-11-07T16:25:55.970Z,85.18
2022-11-07T16:28:00.953Z,83.51
2022-11-07T16:30:04.637Z,85.12
2022-11-07T16:32:08.017Z,83.84
2022-11-07T16:34:11.762Z,84.79
2022-11-07T16:36:20.766Z,85.29
2022-11-07T16:38:26.182Z,85.42
2022-11-07T16:40:29.349Z,86.58
2022-11-07T16:42:32.618Z,87.77
2022-11-07T16:44:35.922Z,88.19
2022-11-07T16:46:39.113Z,88.61
2022-11-07T16:48:42.948Z,87.73
2022-11-07T16:50:46.119Z,87.86
2022-11-07T16:52:49.164Z,86.91
2022-11-07T16:54:54.053Z,86.88
2022-11-07T16:56:57.269Z,87.56
2022-11-07T16:59:00.416Z,88.92
2022-11-07T17:01:06.662Z,88.45
2022-11-07T17:03:12.655Z,88.10
2022-11-07T17:05:15.844Z,89.65
2022-11-07T17:07:20.045Z,90.15
2022-11-07T17:09:24.711Z,89.44
2022-11-07T17:11:29.268Z,89.94
2022-11-07T17:13:32.616Z,91.03
2022-11-07T17:15:35.796Z,90.14
2022-11-07T17:17:39.161Z,91.16
2022-11-07T17:19:42.534Z,91.74
2022-11-07T17:21:49.383Z,91.82
2022-11-07T17:23:53.271Z,91.92
2022-11-07T17:25:57.109Z,92.26
2022-11-07T17:28:01.718Z,92.47
2022-11-07T17:30:08.552Z,92.07
2022-11-07T17:32:11.965Z,90.48
2022-11-07T17:34:15.230Z,90.75
2022-11-07T17:36:25.583Z,90.41
2022-11-07T17:38:28.677Z,90.87
2022-11-07T17:40:33.178Z,90.87
2022-11-07T17:42:38.191Z,91.64
2022-11-07T17:44:42.709Z,91.65
2022-11-07T17:46:47.840Z,91.39
2022-11-07T17:48:50.897Z,91.86
2022-11-07T17:50:54.025Z,91.65
2022-11-07T17:52:57.257Z,91.05
2022-11-07T17:55:00.297Z,90.00
2022-11-07T17:57:08.790Z,90.79
2022-11-07T17:59:14.214Z,89.87
2022-11-07T18:01:21.257Z,89.15
2022-11-07T18:03:24.766Z,88.52
2022-11-07T18:05:33.449Z,88.83
2022-11-07T18:07:40.701Z,89.01
2022-11-07T18:09:44.298Z,89.49
2022-11-07T18:11:47.544Z,89.42
2022-11-07T18:13:51.302Z,89.54
2022-11-07T18:46:16.198Z,92.99
2022-11-07T18:48:34.780Z,91.59
2022-11-07T18:50:45.969Z,92.86
2022-11-07T18:52:53.713Z,93.64
2022-11-07T18:55:02.474Z,93.86
2022-11-07T18:57:06.224Z,93.67
2022-11-07T18:59:10.058Z,94.19
2022-11-07T19:01:16.335Z,93.24
2022-11-07T19:03:20.393Z,94.00
2022-11-07T19:05:23.597Z,94.59
2022-11-07T19:07:27.161Z,95.13
2022-11-07T19:09:32.185Z,95.47
2022-11-07T19:11:35.626Z,94.92
2022-11-07T19:13:40.931Z,95.56
2022-11-07T19:15:44.559Z,94.48
2022-11-07T19:17:49.251Z,94.58
2022-11-07T19:19:53.898Z,94.63
2022-11-07T19:21:57.085Z,94.54
2022-11-07T19:24:00.656Z,95.00
2022-11-07T19:26:03.838Z,94.22
2022-11-07T19:28:07.208Z,94.31
2022-11-07T19:30:11.856Z,93.23
2022-11-07T19:32:15.681Z,94.19
2022-11-07T19:34:21.054Z,93.99
2022-11-07T19:36:24.523Z,94.45
2022-11-07T19:38:27.973Z,94.46
2022-11-07T19:40:31.899Z,95.90
2022-11-07T19:42:34.995Z,94.36
2022-11-07T19:44:40.772Z,94.88
2022-11-07T19:46:46.386Z,94.96
2022-11-07T19:48:51.230Z,95.01
2022-11-07T19:50:55.674Z,94.52
2022-11-07T19:52:58.778Z,96.33
2022-11-07T19:55:02.172Z,96.15
2022-11-07T19:57:06.180Z,95.16
2022-11-07T19:59:10.300Z,96.04
2022-11-07T20:01:15.307Z,96.35
2022-11-07T20:03:18.789Z,96.32
2022-11-07T20:05:25.040Z,96.38
2022-11-07T20:07:29.570Z,95.63
2022-11-07T20:09:33.810Z,95.96
2022-11-07T20:11:37.848Z,96.64
2022-11-07T20:13:41.173Z,96.06
2022-11-07T20:15:44.471Z,96.35
2022-11-07T20:17:47.557Z,97.46
2022-11-07T20:19:50.704Z,95.11
2022-11-07T20:21:53.781Z,95.33
2022-11-07T20:23:59.572Z,95.46
2022-11-07T20:26:07.374Z,95.08
2022-11-07T20:28:10.672Z,94.33
2022-11-07T20:30:14.637Z,95.85
2022-11-07T20:32:17.792Z,94.33
2022-11-07T20:34:21.074Z,95.66
2022-11-07T20:36:24.206Z,96.53
2022-11-07T20:38:28.238Z,95.66
2022-11-07T20:40:32.944Z,95.44
2022-11-07T20:42:36.766Z,95.87
2022-11-07T20:44:41.100Z,95.08
2022-11-07T20:46:46.089Z,95.11
2022-11-07T20:48:49.540Z,95.53
2022-11-07T20:50:53.232Z,94.10
2022-11-07T20:52:58.998Z,95.02
2022-11-07T20:55:03.647Z,95.12
2022-11-07T20:57:09.328Z,94.51
2022-11-07T20:59:12.510Z,94.27
2022-11-07T21:01:17.371Z,94.58
2022-11-07T21:03:20.913Z,94.80
2022-11-07T21:05:24.287Z,94.99
2022-11-07T21:07:27.371Z,95.12
2022-11-07T21:09:30.474Z,94.37
2022-11-07T21:11:33.997Z,95.41
2022-11-07T21:13:49.635Z,95.01
2022-11-07T21:15:56.332Z,94.85
2022-11-07T21:18:00.720Z,94.22
2022-11-07T21:20:04.756Z,95.78
2022-11-07T21:22:07.940Z,94.26
2022-11-07T21:24:11.545Z,95.02
2022-11-07T21:26:17.380Z,95.30
2022-11-07T21:28:20.531Z,94.51
2022-11-07T21:30:25.297Z,94.50
2022-11-07T21:32:28.475Z,94.79
2022-11-07T21:34:37.234Z,93.38
2022-11-07T21:36:40.398Z,94.82
2022-11-07T21:38:44.839Z,93.70
2022-11-07T21:40:48.196Z,95.04
2022-11-07T21:42:54.828Z,94.69
2022-11-07T21:44:57.933Z,95.13
2022-11-07T21:47:02.888Z,93.74
2022-11-07T21:49:06.200Z,94.40
2022-11-07T21:51:11.334Z,94.85
2022-11-07T21:53:14.689Z,94.75
2022-11-07T21:55:18.838Z,94.91
2022-11-07T21:57:23.735Z,94.23
2022-11-07T21:59:27.157Z,93.75
2022-11-07T22:01:35.280Z,94.25
2022-11-07T22:06:06.004Z,94.08
2022-11-07T22:08:09.386Z,95.06
2022-11-07T22:10:13.622Z,95.26
2022-11-07T22:12:17.302Z,94.83
2022-11-07T22:14:22.825Z,94.73
2022-11-07T22:16:26.150Z,93.75
2022-11-07T22:18:29.440Z,94.67
2022-11-07T22:20:34.671Z,93.42
2022-11-07T22:22:37.840Z,93.71
2022-11-07T22:24:40.976Z,94.53
2022-11-07T22:26:44.443Z,94.17
2022-11-07T22:28:49.034Z,94.72
2022-11-07T22:30:52.065Z,94.32
2022-11-07T22:32:55.386Z,94.74
2022-11-07T22:34:58.931Z,93.79
2022-11-07T22:37:03.396Z,94.29
2022-11-07T22:39:06.788Z,94.13
2022-11-07T22:41:12.066Z,95.40
2022-11-07T22:43:15.481Z,94.17
2022-11-07T22:45:19.105Z,95.30
2022-11-07T22:47:22.339Z,95.65
2022-11-07T22:49:25.430Z,95.63
2022-11-07T22:51:31.212Z,94.68
2022-11-07T22:53:36.335Z,95.07
2022-11-07T22:55:40.202Z,94.19
2022-11-07T22:57:43.278Z,94.73
2022-11-07T22:59:46.230Z,94.44
2022-11-07T23:01:49.452Z,93.86
2022-11-07T23:03:52.858Z,94.01
2022-11-07T23:05:55.927Z,93.59
2022-11-07T23:07:58.984Z,94.17
2022-11-07T23:10:03.523Z,93.83
2022-11-07T23:12:06.694Z,93.77
2022-11-07T23:14:12.554Z,93.42
2022-11-07T23:16:23.065Z,93.98
2022-11-07T23:18:26.147Z,93.99
2022-11-07T23:20:46.856Z,94.51
2022-11-07T23:22:49.848Z,94.50
2022-11-07T23:24:53.001Z,94.15
2022-11-07T23:26:57.597Z,94.10
2022-11-07T23:29:04.587Z,94.17
2022-11-07T23:31:11.279Z,94.00
2022-11-07T23:33:14.637Z,94.31
2022-11-07T23:35:17.880Z,94.65
2022-11-07T23:37:21.188Z,94.44
2022-11-07T23:39:25.947Z,94.49
2022-11-07T23:41:29.006Z,94.67
2022-11-07T23:43:34.692Z,94.54
2022-11-07T23:45:55.233Z,94.55
2022-11-07T23:48:18.155Z,94.64
2022-11-07T23:50:39.282Z,93.80
2022-11-07T23:52:42.368Z,94.43
2022-11-07T23:55:03.147Z,94.08
2022-11-07T23:57:06.199Z,93.43
2022-11-07T23:59:28.379Z,93.99
